Time,TemperatureF,DewpointF,PressureIn,WindDirection,WindDirectionDegrees,WindSpeedMPH,WindSpeedGustMPH,Humidity,HourlyPrecipIn,Conditions,Clouds,dailyrainin,SoftwareType,DateUTC
2013-03-07 00:02:00,28.0,26.0,30.33,NW,305,7.0,9.0,92,0.00,,,0.09,,2013-03-07 05:02:00,
2013-03-07 00:12:00,28.0,26.0,30.33,NW,305,7.0,9.0,92,0.00,,,0.09,,2013-03-07 05:12:00,
2013-03-07 00:22:00,28.0,26.0,30.33,NW,311,6.0,9.0,92,0.00,,,0.09,,2013-03-07 05:22:00,
2013-03-07 00:32:00,28.0,26.0,30.33,NW,325,4.0,8.0,92,0.00,,,0.09,,2013-03-07 05:32:00,
2013-03-07 00:42:00,28.0,26.0,30.33,NW,325,4.0,8.0,92,0.00,,,0.09,,2013-03-07 05:42:00,
2013-03-07 00:52:00,28.0,26.0,30.33,NW,325,4.0,8.0,92,0.00,,,0.09,,2013-03-07 05:52:00,
2013-03-07 01:01:00,28.0,26.0,30.33,WNW,298,5.0,8.0,92,0.00,,,0.09,,2013-03-07 06:01:00,
2013-03-07 01:11:00,28.0,26.0,30.33,WNW,298,5.0,8.0,92,0.00,,,0.09,,2013-03-07 06:11:00,
2013-03-07 01:21:00,28.0,26.0,30.33,WNW,296,5.0,7.0,92,0.00,,,0.09,,2013-03-07 06:21:00,
2013-03-07 01:32:00,28.0,26.0,30.34,WNW,284,4.0,7.0,92,0.00,,,0.09,,2013-03-07 06:32:00,
2013-03-07 01:42:00,28.0,26.0,30.34,WNW,284,4.0,7.0,92,0.00,,,0.09,,2013-03-07 06:42:00,
2013-03-07 01:51:00,27.0,25.0,30.34,West,281,5.0,7.0,93,0.00,,,0.09,,2013-03-07 06:51:00,
2013-03-07 02:01:00,27.0,25.0,30.34,West,274,4.0,6.0,93,0.00,,,0.09,,2013-03-07 07:01:00,
2013-03-07 02:11:00,27.0,25.0,30.34,West,274,4.0,6.0,93,0.00,,,0.09,,2013-03-07 07:11:00,
2013-03-07 02:21:00,27.0,25.0,30.35,West,275,4.0,7.0,93,0.00,,,0.09,,2013-03-07 07:21:00,
2013-03-07 02:32:00,27.0,25.0,30.35,West,269,3.0,5.0,93,0.00,,,0.09,,2013-03-07 07:32:00,
2013-03-07 02:42:00,27.0,25.0,30.35,West,269,3.0,5.0,93,0.00,,,0.09,,2013-03-07 07:42:00,
2013-03-07 02:53:00,27.0,25.0,30.35,West,277,4.0,6.0,93,0.00,,,0.09,,2013-03-07 07:53:00,
2013-03-07 03:02:00,27.0,26.0,30.35,WNW,291,4.0,7.0,94,0.00,,,0.09,,2013-03-07 08:02:00,
2013-03-07 03:12:00,27.0,26.0,30.35,WNW,291,4.0,7.0,94,0.00,,,0.09,,2013-03-07 08:12:00,
2013-03-07 03:22:00,27.0,26.0,30.35,WNW,284,4.0,5.0,94,0.00,,,0.09,,2013-03-07 08:22:00,
2013-03-07 03:33:00,27.0,26.0,30.36,WNW,286,4.0,6.0,94,0.00,,,0.09,,2013-03-07 08:33:00,
2013-03-07 03:43:00,27.0,26.0,30.36,WNW,286,4.0,6.0,94,0.00,,,0.09,,2013-03-07 08:43:00,
2013-03-07 03:54:00,27.0,26.0,30.36,WNW,286,3.0,6.0,94,0.00,,,0.09,,2013-03-07 08:54:00,
2013-03-07 04:03:00,27.0,26.0,30.36,West,279,1.0,4.0,94,0.00,,,0.09,,2013-03-07 09:03:00,
2013-03-07 04:13:00,27.0,26.0,30.36,West,279,1.0,4.0,94,0.00,,,0.09,,2013-03-07 09:13:00,
2013-03-07 04:23:00,27.0,26.0,30.36,West,277,3.0,5.0,94,0.00,,,0.09,,2013-03-07 09:23:00,
2013-03-07 04:32:00,27.0,26.0,30.37,WNW,282,3.0,6.0,94,0.00,,,0.09,,2013-03-07 09:32:00,
2013-03-07 04:42:00,27.0,26.0,30.37,WNW,282,3.0,6.0,94,0.00,,,0.09,,2013-03-07 09:42:00,
2013-03-07 04:53:00,27.0,25.0,30.37,WNW,285,5.0,7.0,93,0.00,,,0.09,,2013-03-07 09:53:00,
2013-03-07 05:03:00,27.0,25.0,30.37,WNW,288,3.0,7.0,93,0.00,,,0.09,,2013-03-07 10:03:00,
2013-03-07 05:13:00,27.0,25.0,30.37,WNW,288,3.0,7.0,93,0.00,,,0.09,,2013-03-07 10:13:00,
2013-03-07 05:23:00,27.0,25.0,30.38,WNW,297,2.0,6.0,93,0.00,,,0.09,,2013-03-07 10:23:00,
2013-03-07 05:33:00,27.0,25.0,30.38,West,280,4.0,7.0,93,0.00,,,0.09,,2013-03-07 10:33:00,
2013-03-07 05:42:00,27.0,25.0,30.38,West,280,4.0,7.0,93,0.00,,,0.09,,2013-03-07 10:42:00,
2013-03-07 05:53:00,27.0,25.0,30.38,West,273,3.0,5.0,93,0.00,,,0.09,,2013-03-07 10:53:00,
2013-03-07 06:02:00,27.0,25.0,30.38,WNW,285,2.0,4.0,93,0.00,,,0.09,,2013-03-07 11:02:00,
2013-03-07 06:12:00,27.0,25.0,30.38,WNW,285,2.0,4.0,93,0.00,,,0.09,,2013-03-07 11:12:00,
2013-03-07 06:23:00,27.0,25.0,30.38,WNW,292,2.0,4.0,93,0.00,,,0.09,,2013-03-07 11:23:00,
2013-03-07 06:33:00,26.0,25.0,30.38,WNW,289,3.0,4.0,94,0.00,,,0.09,,2013-03-07 11:33:00,
2013-03-07 06:43:00,26.0,25.0,30.38,WNW,289,3.0,4.0,94,0.00,,,0.09,,2013-03-07 11:43:00,
2013-03-07 06:54:00,27.0,25.0,30.39,West,273,1.0,4.0,93,0.00,,,0.09,,2013-03-07 11:54:00,
2013-03-07 07:02:00,26.0,25.0,30.38,West,274,1.0,3.0,94,0.00,,,0.09,,2013-03-07 12:02:00,
2013-03-07 07:12:00,26.0,25.0,30.38,West,274,1.0,3.0,94,0.00,,,0.09,,2013-03-07 12:12:00,
2013-03-07 07:33:00,26.0,25.0,30.39,WNW,284,2.0,4.0,94,0.00,,,0.09,,2013-03-07 12:33:00,
2013-03-07 07:42:00,26.0,25.0,30.39,WNW,284,2.0,4.0,94,0.00,,,0.09,,2013-03-07 12:42:00,
2013-03-07 07:53:00,26.0,25.0,30.40,WNW,290,2.0,4.0,94,0.00,,,0.09,,2013-03-07 12:53:00,
2013-03-07 08:02:00,26.0,25.0,30.40,West,278,3.0,5.0,94,0.00,,,0.09,,2013-03-07 13:02:00,
2013-03-07 08:12:00,26.0,25.0,30.40,West,278,3.0,5.0,94,0.00,,,0.09,,2013-03-07 13:12:00,
2013-03-07 08:22:00,26.0,25.0,30.40,WNW,283,3.0,4.0,94,0.00,,,0.09,,2013-03-07 13:22:00,
2013-03-07 08:32:00,27.0,26.0,30.41,West,279,1.0,3.0,94,0.00,,,0.09,,2013-03-07 13:32:00,
2013-03-07 08:42:00,27.0,26.0,30.41,West,279,1.0,3.0,94,0.00,,,0.09,,2013-03-07 13:42:00,
2013-03-07 08:53:00,27.0,25.0,30.42,WNW,286,2.0,4.0,93,0.00,,,0.09,,2013-03-07 13:53:00,
2013-03-07 09:02:00,27.0,25.0,30.42,West,281,3.0,4.0,93,0.00,,,0.09,,2013-03-07 14:02:00,
2013-03-07 09:12:00,27.0,25.0,30.42,West,281,3.0,4.0,93,0.00,,,0.09,,2013-03-07 14:12:00,
2013-03-07 09:22:00,28.0,26.0,30.42,WNW,284,2.0,4.0,93,0.00,,,0.09,,2013-03-07 14:22:00,
2013-03-07 09:42:00,28.0,26.0,30.42,WNW,287,3.0,4.0,92,0.00,,,0.09,,2013-03-07 14:42:00,
2013-03-07 09:54:00,28.0,26.0,30.43,WNW,284,3.0,5.0,91,0.00,,,0.09,,2013-03-07 14:54:00,
2013-03-07 10:02:00,29.0,27.0,30.43,West,281,4.0,6.0,91,0.00,,,0.09,,2013-03-07 15:02:00,
2013-03-07 10:12:00,29.0,27.0,30.43,West,281,4.0,6.0,91,0.00,,,0.09,,2013-03-07 15:12:00,
2013-03-07 10:23:00,29.0,27.0,30.43,West,277,3.0,6.0,91,0.00,,,0.09,,2013-03-07 15:23:00,
2013-03-07 10:32:00,29.0,27.0,30.43,WNW,294,3.0,5.0,91,0.00,,,0.09,,2013-03-07 15:32:00,
2013-03-07 10:42:00,29.0,27.0,30.43,WNW,294,3.0,5.0,91,0.00,,,0.09,,2013-03-07 15:42:00,
2013-03-07 10:53:00,30.0,27.0,30.44,WNW,299,3.0,5.0,90,0.00,,,0.09,,2013-03-07 15:53:00,
2013-03-07 11:02:00,30.0,27.0,30.43,NW,304,4.0,6.0,89,0.00,,,0.09,,2013-03-07 16:02:00,
2013-03-07 11:12:00,30.0,27.0,30.43,NW,304,4.0,6.0,89,0.00,,,0.09,,2013-03-07 16:12:00,
2013-03-07 11:23:00,30.0,27.0,30.44,NW,305,4.0,5.0,89,0.01,,,0.10,,2013-03-07 16:23:00,
2013-03-07 11:32:00,30.0,27.0,30.44,WNW,294,4.0,6.0,89,0.02,,,0.11,,2013-03-07 16:32:00,
2013-03-07 11:42:00,30.0,27.0,30.44,WNW,294,4.0,6.0,89,0.02,,,0.11,,2013-03-07 16:42:00,
2013-03-07 11:53:00,31.0,28.0,30.44,NW,309,4.0,6.0,89,0.03,,,0.12,,2013-03-07 16:53:00,
2013-03-07 12:02:00,31.0,28.0,30.44,WNW,301,4.0,6.0,88,0.05,,,0.14,,2013-03-07 17:02:00,
2013-03-07 12:12:00,31.0,28.0,30.44,WNW,301,4.0,6.0,88,0.05,,,0.14,,2013-03-07 17:12:00,
2013-03-07 12:22:00,31.0,28.0,30.44,WNW,293,4.0,7.0,89,0.05,,,0.15,,2013-03-07 17:22:00,
2013-03-07 12:32:00,32.0,29.0,30.45,WNW,294,4.0,7.0,88,0.06,,,0.15,,2013-03-07 17:32:00,
2013-03-07 12:43:00,32.0,29.0,30.45,WNW,294,4.0,7.0,88,0.06,,,0.15,,2013-03-07 17:43:00,
2013-03-07 12:54:00,32.0,29.0,30.44,WNW,300,4.0,6.0,87,0.06,,,0.16,,2013-03-07 17:54:00,
2013-03-07 13:03:00,32.0,28.0,30.44,WNW,301,3.0,5.0,86,0.05,,,0.17,,2013-03-07 18:03:00,
2013-03-07 13:12:00,32.0,28.0,30.44,WNW,301,3.0,5.0,86,0.05,,,0.17,,2013-03-07 18:12:00,
2013-03-07 13:22:00,33.0,29.0,30.42,WNW,286,3.0,5.0,85,0.06,,,0.19,,2013-03-07 18:22:00,
2013-03-07 13:32:00,33.0,29.0,30.43,WNW,288,4.0,6.0,86,0.04,,,0.18,,2013-03-07 18:32:00,
2013-03-07 13:42:00,33.0,29.0,30.43,WNW,288,4.0,6.0,86,0.04,,,0.18,,2013-03-07 18:42:00,
2013-03-07 13:53:00,33.0,29.0,30.43,West,281,4.0,6.0,86,0.04,,,0.19,,2013-03-07 18:53:00,
2013-03-07 14:03:00,33.0,29.0,30.43,NW,313,5.0,6.0,84,0.04,,,0.20,,2013-03-07 19:03:00,
2013-03-07 14:12:00,33.0,29.0,30.43,NW,313,5.0,6.0,84,0.04,,,0.20,,2013-03-07 19:12:00,
2013-03-07 14:23:00,34.0,30.0,30.42,NW,316,4.0,6.0,85,0.02,,,0.20,,2013-03-07 19:23:00,
2013-03-07 14:34:00,33.0,29.0,30.42,WNW,303,5.0,7.0,85,0.03,,,0.18,,2013-03-07 19:34:00,
2013-03-07 14:43:00,33.0,29.0,30.42,WNW,303,5.0,7.0,85,0.03,,,0.18,,2013-03-07 19:43:00,
2013-03-07 14:53:00,34.0,30.0,30.42,NW,311,5.0,6.0,84,0.03,,,0.19,,2013-03-07 19:53:00,
2013-03-07 15:02:00,34.0,30.0,30.41,NW,310,4.0,6.0,85,0.02,,,0.19,,2013-03-07 20:02:00,
2013-03-07 15:13:00,34.0,30.0,30.41,NW,310,4.0,6.0,85,0.02,,,0.19,,2013-03-07 20:13:00,
2013-03-07 15:22:00,34.0,29.0,30.42,NW,317,3.0,5.0,83,0.02,,,0.19,,2013-03-07 20:22:00,
2013-03-07 15:33:00,34.0,29.0,30.42,WNW,303,3.0,5.0,83,0.01,,,0.18,,2013-03-07 20:33:00,
2013-03-07 15:42:00,34.0,29.0,30.42,WNW,303,3.0,5.0,83,0.01,,,0.18,,2013-03-07 20:42:00,
2013-03-07 15:54:00,34.0,29.0,30.42,WNW,295,3.0,5.0,82,0.00,,,0.18,,2013-03-07 20:54:00,
2013-03-07 16:02:00,34.0,28.0,30.42,NW,306,1.0,4.0,80,0.01,,,0.19,,2013-03-07 21:02:00,
2013-03-07 16:12:00,34.0,28.0,30.42,NW,306,1.0,4.0,80,0.01,,,0.19,,2013-03-07 21:12:00,
2013-03-07 16:22:00,34.0,28.0,30.42,NW,310,2.0,4.0,78,0.01,,,0.19,,2013-03-07 21:22:00,
2013-03-07 16:32:00,35.0,26.0,30.42,NW,323,1.0,4.0,70,0.01,,,0.18,,2013-03-07 21:32:00,
2013-03-07 16:42:00,35.0,26.0,30.42,NW,323,1.0,4.0,70,0.01,,,0.18,,2013-03-07 21:42:00,
2013-03-07 16:53:00,34.0,26.0,30.42,WSW,251,4.0,6.0,71,0.01,,,0.18,,2013-03-07 21:53:00,
2013-03-07 17:01:00,34.0,26.0,30.43,West,261,2.0,4.0,71,0.00,,,0.18,,2013-03-07 22:01:00,
2013-03-07 17:12:00,34.0,26.0,30.43,West,261,2.0,4.0,71,0.00,,,0.18,,2013-03-07 22:12:00,
2013-03-07 17:22:00,34.0,25.0,30.42,WNW,283,0.0,2.0,70,0.00,,,0.18,,2013-03-07 22:22:00,
2013-03-07 17:32:00,34.0,25.0,30.42,West,279,0.0,2.0,69,0.00,,,0.17,,2013-03-07 22:32:00,
2013-03-07 17:42:00,34.0,25.0,30.42,West,279,0.0,2.0,69,0.00,,,0.17,,2013-03-07 22:42:00,
2013-03-07 17:54:00,34.0,26.0,30.42,WNW,299,0.0,3.0,72,0.00,,,0.17,,2013-03-07 22:54:00,
2013-03-07 18:02:00,34.0,25.0,30.43,NNE,18,0.0,3.0,70,0.00,,,0.17,,2013-03-07 23:02:00,
2013-03-07 18:12:00,34.0,25.0,30.43,NNE,18,0.0,3.0,70,0.00,,,0.17,,2013-03-07 23:12:00,
2013-03-07 18:22:00,34.0,26.0,30.44,NE,43,0.0,3.0,71,0.00,,,0.17,,2013-03-07 23:22:00,
2013-03-07 18:33:00,33.0,25.0,30.44,SE,144,0.0,4.0,71,0.00,,,0.17,,2013-03-07 23:33:00,
2013-03-07 18:43:00,33.0,25.0,30.44,SE,144,0.0,4.0,71,0.00,,,0.17,,2013-03-07 23:43:00,
2013-03-07 18:54:00,33.0,26.0,30.44,West,260,0.0,3.0,75,0.00,,,0.17,,2013-03-07 23:54:00,
2013-03-07 19:03:00,32.0,26.0,30.44,West,265,0.0,1.0,78,0.00,,,0.17,,2013-03-08 00:03:00,
2013-03-07 19:12:00,32.0,26.0,30.44,West,265,0.0,1.0,78,0.00,,,0.17,,2013-03-08 00:12:00,
2013-03-07 19:23:00,32.0,24.0,30.43,East,92,0.0,0.0,73,0.00,,,0.17,,2013-03-08 00:23:00,
2013-03-07 19:33:00,32.0,24.0,30.44,ENE,68,0.0,1.0,73,0.00,,,0.17,,2013-03-08 00:33:00,
2013-03-07 19:43:00,32.0,24.0,30.44,ENE,68,0.0,1.0,73,0.00,,,0.17,,2013-03-08 00:43:00,
2013-03-07 19:53:00,32.0,26.0,30.43,ENE,68,0.0,1.0,77,0.00,,,0.17,,2013-03-08 00:53:00,
2013-03-07 20:02:00,32.0,26.0,30.43,ENE,68,0.0,1.0,77,0.00,,,0.17,,2013-03-08 01:02:00,
2013-03-07 20:11:00,32.0,26.0,30.43,ENE,68,0.0,1.0,77,0.00,,,0.17,,2013-03-08 01:11:00,
2013-03-07 20:21:00,31.0,25.0,30.44,ENE,70,0.0,0.0,77,0.00,,,0.17,,2013-03-08 01:21:00,
2013-03-07 20:32:00,31.0,25.0,30.43,ENE,70,0.0,0.0,79,0.00,,,0.17,,2013-03-08 01:32:00,
2013-03-07 20:42:00,31.0,25.0,30.43,ENE,70,0.0,0.0,79,0.00,,,0.17,,2013-03-08 01:42:00,
2013-03-07 20:52:00,30.0,25.0,30.44,ENE,70,0.0,0.0,81,0.00,,,0.17,,2013-03-08 01:52:00,
2013-03-07 21:01:00,30.0,25.0,30.44,ENE,70,0.0,0.0,81,0.00,,,0.17,,2013-03-08 02:01:00,
2013-03-07 21:11:00,29.0,25.0,30.44,ENE,70,0.0,0.0,83,0.00,,,0.17,,2013-03-08 02:11:00,
2013-03-07 21:22:00,29.0,25.0,30.44,ENE,70,0.0,0.0,83,0.00,,,0.17,,2013-03-08 02:22:00,
2013-03-07 21:32:00,28.0,24.0,30.44,ENE,70,0.0,0.0,84,0.00,,,0.17,,2013-03-08 02:32:00,
2013-03-07 21:42:00,28.0,24.0,30.44,ENE,70,0.0,0.0,84,0.00,,,0.17,,2013-03-08 02:42:00,
2013-03-07 21:53:00,27.0,23.0,30.44,ENE,70,0.0,0.0,85,0.00,,,0.17,,2013-03-08 02:53:00,
2013-03-07 22:02:00,27.0,24.0,30.44,ENE,70,0.0,0.0,89,0.00,,,0.17,,2013-03-08 03:02:00,
2013-03-07 22:12:00,27.0,24.0,30.44,ENE,70,0.0,0.0,89,0.00,,,0.17,,2013-03-08 03:12:00,
2013-03-07 22:22:00,26.0,23.0,30.44,ENE,70,0.0,0.0,89,0.00,,,0.17,,2013-03-08 03:22:00,
2013-03-07 22:32:00,26.0,23.0,30.45,ENE,70,0.0,0.0,89,0.00,,,0.17,,2013-03-08 03:32:00,
2013-03-07 22:42:00,26.0,23.0,30.45,ENE,70,0.0,0.0,89,0.00,,,0.17,,2013-03-08 03:42:00,
2013-03-07 22:53:00,25.0,22.0,30.44,ENE,70,0.0,0.0,90,0.00,,,0.17,,2013-03-08 03:53:00,
2013-03-07 23:01:00,25.0,23.0,30.44,ENE,70,0.0,0.0,91,0.00,,,0.17,,2013-03-08 04:01:00,
2013-03-07 23:11:00,25.0,23.0,30.44,ENE,70,0.0,0.0,91,0.00,,,0.17,,2013-03-08 04:11:00,
2013-03-07 23:22:00,25.0,23.0,30.45,ENE,70,0.0,0.0,91,0.00,,,0.17,,2013-03-08 04:22:00,
2013-03-07 23:32:00,24.0,22.0,30.45,ENE,70,0.0,0.0,90,0.00,,,0.17,,2013-03-08 04:32:00,
2013-03-07 23:42:00,24.0,22.0,30.45,ENE,70,0.0,0.0,90,0.00,,,0.17,,2013-03-08 04:42:00,
2013-03-07 23:52:00,24.0,22.0,30.45,ENE,70,0.0,0.0,92,0.00,,,0.17,,2013-03-08 04:52:00,